Jump to content

Mihai Eu

Members
  • Content Count

    16
  • Donations

    $0.00 
  • Joined

  • Last visited

Community Reputation

6 Neutral

About Mihai Eu

  • Rank
    Mihai Eu

Profile Information

  • Gender
    Male
  • Location
    LROP, Romania

Flight Sim Profile

  • Commercial Member
    No
  • Online Flight Organization Membership
    Other
  • Virtual Airlines
    No

Single Status Update

See all updates by Mihai Eu

  1. LROP METAR Weather: LROP 062200Z 05030G40KT 9999 -RA BKN031 06/04 Q0995 WS ALL RWY 8829//95 NOSIG Flight radar+Live ATC ON :)

×
×
  • Create New...